Harmon, Arkansas
Current Conditions -  °F | °C
As of 6:53 PM on Sunday 21 Dec 2014 (Local Time) from KFYV Reporting Station
Overcast Overcast  
Wind Chill: 42°   Ceiling: 2900
Heat Index: 44°   Visibility: 10mi
Dew Point: 38°   Wind: 5mph
Humidity: 79%   Direction: 140°SE
Pressure: 29.87"   Gusts: NA
Location:  35.9902°N, 94.083°W
Report Text: KFYV 220053Z 14004KT 10SM BKN029 OVC035 07/03 A2987 RMK AO2 SLP117 T00670033
Loading
Personal Weather Stations






























Interactive Weather Map New forecast layout! Learn more

10-Day Weather Forecast

Advertisements
Track Severe Weather on mobile